sensor_id;sensor_type;location;lat;lon;timestamp;pressure;altitude;pressure_sealevel;temperature;humidity
77110;BME280;66062;52.464;16.922;2023-02-28T00:02:19;102180.56;;;-3.11;93.99
77110;BME280;66062;52.464;16.922;2023-02-28T00:04:45;102187.44;;;-3.03;93.83
77110;BME280;66062;52.464;16.922;2023-02-28T00:07:11;102191.78;;;-3.00;93.78
77110;BME280;66062;52.464;16.922;2023-02-28T00:09:36;102182.22;;;-3.04;94.13
77110;BME280;66062;52.464;16.922;2023-02-28T00:12:02;102185.78;;;-3.11;94.38
77110;BME280;66062;52.464;16.922;2023-02-28T00:14:35;102189.28;;;-3.14;95.07
77110;BME280;66062;52.464;16.922;2023-02-28T00:17:01;102178.81;;;-3.14;95.15
77110;BME280;66062;52.464;16.922;2023-02-28T00:19:26;102178.00;;;-3.17;95.94
77110;BME280;66062;52.464;16.922;2023-02-28T00:21:51;102182.34;;;-3.19;96.63
77110;BME280;66062;52.464;16.922;2023-02-28T00:24:17;102181.53;;;-3.21;96.97
77110;BME280;66062;52.464;16.922;2023-02-28T00:26:42;102191.97;;;-3.24;96.92
77110;BME280;66062;52.464;16.922;2023-02-28T00:29:07;102189.41;;;-3.27;97.37
77110;BME280;66062;52.464;16.922;2023-02-28T00:31:33;102190.28;;;-3.25;97.62
77110;BME280;66062;52.464;16.922;2023-02-28T00:33:58;102192.84;;;-3.24;97.26
77110;BME280;66062;52.464;16.922;2023-02-28T00:36:23;102191.97;;;-3.24;96.99
77110;BME280;66062;52.464;16.922;2023-02-28T00:38:49;102192.06;;;-3.30;97.04
77110;BME280;66062;52.464;16.922;2023-02-28T00:41:14;102187.75;;;-3.36;96.64
77110;BME280;66062;52.464;16.922;2023-02-28T00:43:40;102193.88;;;-3.43;97.12
77110;BME280;66062;52.464;16.922;2023-02-28T00:46:05;102182.63;;;-3.47;96.76
77110;BME280;66062;52.464;16.922;2023-02-28T00:48:31;102184.38;;;-3.49;96.81
77110;BME280;66062;52.464;16.922;2023-02-28T00:50:56;102189.50;;;-3.39;96.62
77110;BME280;66062;52.464;16.922;2023-02-28T00:53:22;102186.88;;;-3.39;96.05
77110;BME280;66062;52.464;16.922;2023-02-28T00:55:49;102193.88;;;-3.41;96.48
77110;BME280;66062;52.464;16.922;2023-02-28T00:58:14;102188.69;;;-3.45;96.29
77110;BME280;66062;52.464;16.922;2023-02-28T01:00:40;102191.31;;;-3.46;96.40
77110;BME280;66062;52.464;16.922;2023-02-28T01:03:05;102197.38;;;-3.42;96.30
77110;BME280;66062;52.464;16.922;2023-02-28T01:05:31;102184.38;;;-3.49;95.90
77110;BME280;66062;52.464;16.922;2023-02-28T01:07:56;102190.41;;;-3.45;96.83
77110;BME280;66062;52.464;16.922;2023-02-28T01:10:21;102186.09;;;-3.49;97.23
77110;BME280;66062;52.464;16.922;2023-02-28T01:12:47;102188.75;;;-3.51;96.55
77110;BME280;66062;52.464;16.922;2023-02-28T01:15:12;102192.19;;;-3.50;97.15
77110;BME280;66062;52.464;16.922;2023-02-28T01:17:38;102191.38;;;-3.52;97.06
77110;BME280;66062;52.464;16.922;2023-02-28T01:20:04;102179.22;;;-3.56;96.85
77110;BME280;66062;52.464;16.922;2023-02-28T01:22:29;102184.41;;;-3.55;97.26
77110;BME280;66062;52.464;16.922;2023-02-28T01:24:54;102181.75;;;-3.49;96.27
77110;BME280;66062;52.464;16.922;2023-02-28T01:27:20;102173.09;;;-3.54;96.81
77110;BME280;66062;52.464;16.922;2023-02-28T01:29:45;102182.66;;;-3.53;97.27
77110;BME280;66062;52.464;16.922;2023-02-28T01:32:11;102176.56;;;-3.52;97.29
77110;BME280;66062;52.464;16.922;2023-02-28T01:34:36;102177.44;;;-3.54;97.81
77110;BME280;66062;52.464;16.922;2023-02-28T01:37:02;102174.00;;;-3.59;97.43
77110;BME280;66062;52.464;16.922;2023-02-28T01:39:28;102179.28;;;-3.64;97.28
77110;BME280;66062;52.464;16.922;2023-02-28T01:41:54;102174.91;;;-3.62;97.83
77110;BME280;66062;52.464;16.922;2023-02-28T01:45:01;102180.19;;;-3.68;98.15
77110;BME280;66062;52.464;16.922;2023-02-28T01:47:40;102169.78;;;-3.72;97.60
77110;BME280;66062;52.464;16.922;2023-02-28T01:50:15;102171.53;;;-3.73;97.84
77110;BME280;66062;52.464;16.922;2023-02-28T01:52:42;102181.97;;;-3.73;97.93
77110;BME280;66062;52.464;16.922;2023-02-28T01:55:10;102176.78;;;-3.76;98.01
77110;BME280;66062;52.464;16.922;2023-02-28T01:57:40;102183.72;;;-3.78;97.91
77110;BME280;66062;52.464;16.922;2023-02-28T02:00:10;102179.34;;;-3.73;98.78
77110;BME280;66062;52.464;16.922;2023-02-28T02:02:44;102173.25;;;-3.75;98.63
77110;BME280;66062;52.464;16.922;2023-02-28T02:05:18;102171.56;;;-3.77;99.18
77110;BME280;66062;52.464;16.922;2023-02-28T02:07:46;102164.59;;;-3.78;98.78
77110;BME280;66062;52.464;16.922;2023-02-28T02:18:33;102174.16;;;-3.79;99.14
77110;BME280;66062;52.464;16.922;2023-02-28T02:21:20;102175.06;;;-3.83;99.32
77110;BME280;66062;52.464;16.922;2023-02-28T02:30:03;102176.81;;;-3.85;99.83
77110;BME280;66062;52.464;16.922;2023-02-28T02:33:03;102178.56;;;-3.85;99.28
77110;BME280;66062;52.464;16.922;2023-02-28T02:35:49;102178.56;;;-3.85;99.70
77110;BME280;66062;52.464;16.922;2023-02-28T02:43:29;102179.56;;;-4.02;99.75
77110;BME280;66062;52.464;16.922;2023-02-28T02:46:08;102172.56;;;-3.98;100.00
77110;BME280;66062;52.464;16.922;2023-02-28T02:48:38;102171.69;;;-3.97;100.00
77110;BME280;66062;52.464;16.922;2023-02-28T02:51:09;102169.06;;;-3.96;100.00
77110;BME280;66062;52.464;16.922;2023-02-28T02:54:02;102165.50;;;-3.85;100.00
77110;BME280;66062;52.464;16.922;2023-02-28T02:56:32;102173.34;;;-3.84;100.00
77110;BME280;66062;52.464;16.922;2023-02-28T02:59:04;102165.50;;;-3.84;99.53
77110;BME280;66062;52.464;16.922;2023-02-28T03:01:32;102164.69;;;-3.89;100.00
77110;BME280;66062;52.464;16.922;2023-02-28T03:04:12;102163.81;;;-3.90;99.93
77110;BME280;66062;52.464;16.922;2023-02-28T03:06:40;102161.28;;;-3.97;99.93
77110;BME280;66062;52.464;16.922;2023-02-28T03:09:05;102154.28;;;-3.95;100.00
77110;BME280;66062;52.464;16.922;2023-02-28T03:11:31;102169.03;;;-3.90;100.00
77110;BME280;66062;52.464;16.922;2023-02-28T03:17:02;102164.66;;;-3.84;100.00
77110;BME280;66062;52.464;16.922;2023-02-28T03:19:51;102167.25;;;-3.84;100.00
77110;BME280;66062;52.464;16.922;2023-02-28T03:28:10;102170.00;;;-4.04;100.00
77110;BME280;66062;52.464;16.922;2023-02-28T03:30:50;102163.91;;;-4.02;100.00
77110;BME280;66062;52.464;16.922;2023-02-28T03:33:23;102164.78;;;-4.06;100.00
77110;BME280;66062;52.464;16.922;2023-02-28T03:35:57;102168.25;;;-4.05;100.00
77110;BME280;66062;52.464;16.922;2023-02-28T03:38:29;102168.25;;;-4.05;100.00
77110;BME280;66062;52.464;16.922;2023-02-28T03:41:08;102172.59;;;-4.04;100.00
77110;BME280;66062;52.464;16.922;2023-02-28T03:43:39;102175.19;;;-4.00;100.00
77110;BME280;66062;52.464;16.922;2023-02-28T03:46:09;102169.97;;;-4.01;100.00
77110;BME280;66062;52.464;16.922;2023-02-28T03:48:48;102173.44;;;-3.99;100.00
77110;BME280;66062;52.464;16.922;2023-02-28T03:51:17;102171.69;;;-3.97;100.00
77110;BME280;66062;52.464;16.922;2023-02-28T03:53:50;102178.63;;;-3.93;100.00
77110;BME280;66062;52.464;16.922;2023-02-28T03:56:22;102173.47;;;-4.02;100.00
77110;BME280;66062;52.464;16.922;2023-02-28T03:59:04;102180.44;;;-4.04;100.00
77110;BME280;66062;52.464;16.922;2023-02-28T04:01:43;102185.66;;;-4.07;100.00
77110;BME280;66062;52.464;16.922;2023-02-28T04:04:10;102183.88;;;-3.99;100.00
77110;BME280;66062;52.464;16.922;2023-02-28T04:06:36;102178.63;;;-3.96;100.00
77110;BME280;66062;52.464;16.922;2023-02-28T04:09:03;102190.81;;;-4.01;100.00
77110;BME280;66062;52.464;16.922;2023-02-28T04:11:37;102185.59;;;-3.98;100.00
77110;BME280;66062;52.464;16.922;2023-02-28T04:14:04;102188.09;;;-3.80;100.00
77110;BME280;66062;52.464;16.922;2023-02-28T04:16:31;102187.25;;;-3.83;99.72
77110;BME280;66062;52.464;16.922;2023-02-28T04:18:56;102188.97;;;-3.81;99.53
77110;BME280;66062;52.464;16.922;2023-02-28T04:21:29;102195.09;;;-3.86;99.43
77110;BME280;66062;52.464;16.922;2023-02-28T04:23:55;102196.91;;;-3.98;99.67
77110;BME280;66062;52.464;16.922;2023-02-28T04:26:20;102196.91;;;-4.01;99.42
77110;BME280;66062;52.464;16.922;2023-02-28T04:28:45;102190.81;;;-4.00;100.00
77110;BME280;66062;52.464;16.922;2023-02-28T04:31:11;102185.66;;;-4.07;99.29
77110;BME280;66062;52.464;16.922;2023-02-28T04:33:36;102190.88;;;-4.10;99.74
77110;BME280;66062;52.464;16.922;2023-02-28T04:36:06;102193.47;;;-4.06;100.00
77110;BME280;66062;52.464;16.922;2023-02-28T04:38:33;102199.59;;;-4.14;100.00
77110;BME280;66062;52.464;16.922;2023-02-28T04:40:59;102206.53;;;-4.16;100.00
77110;BME280;66062;52.464;16.922;2023-02-28T04:43:26;102206.53;;;-4.16;100.00
77110;BME280;66062;52.464;16.922;2023-02-28T04:45:53;102206.53;;;-4.07;100.00
77110;BME280;66062;52.464;16.922;2023-02-28T04:48:25;102210.00;;;-4.08;99.95
77110;BME280;66062;52.464;16.922;2023-02-28T04:50:54;102215.25;;;-4.19;100.00
77110;BME280;66062;52.464;16.922;2023-02-28T04:53:20;102217.03;;;-4.32;100.00
77110;BME280;66062;52.464;16.922;2023-02-28T04:55:46;102213.56;;;-4.31;100.00
77110;BME280;66062;52.464;16.922;2023-02-28T04:58:13;102206.63;;;-4.28;100.00
77110;BME280;66062;52.464;16.922;2023-02-28T05:00:38;102215.28;;;-4.25;100.00
77110;BME280;66062;52.464;16.922;2023-02-28T05:03:04;102214.38;;;-4.12;100.00
77110;BME280;66062;52.464;16.922;2023-02-28T05:05:29;102213.56;;;-4.27;100.00
77110;BME280;66062;52.464;16.922;2023-02-28T05:07:55;102215.34;;;-4.33;100.00
77110;BME280;66062;52.464;16.922;2023-02-28T05:10:22;102221.38;;;-4.23;100.00
77110;BME280;66062;52.464;16.922;2023-02-28T05:12:48;102218.75;;;-4.26;100.00
77110;BME280;66062;52.464;16.922;2023-02-28T05:15:14;102224.03;;;-4.34;100.00
77110;BME280;66062;52.464;16.922;2023-02-28T05:17:40;102225.75;;;-4.36;100.00
77110;BME280;66062;52.464;16.922;2023-02-28T05:20:06;102222.28;;;-4.35;100.00
77110;BME280;66062;52.464;16.922;2023-02-28T05:22:32;102230.97;;;-4.33;100.00
77110;BME280;66062;52.464;16.922;2023-02-28T05:24:57;102227.47;;;-4.32;100.00
77110;BME280;66062;52.464;16.922;2023-02-28T05:27:23;102230.91;;;-4.17;100.00
77110;BME280;66062;52.464;16.922;2023-02-28T05:29:48;102230.94;;;-4.22;100.00
77110;BME280;66062;52.464;16.922;2023-02-28T05:32:14;102232.66;;;-4.25;100.00
77110;BME280;66062;52.464;16.922;2023-02-28T05:34:40;102236.13;;;-4.23;99.62
77110;BME280;66062;52.464;16.922;2023-02-28T05:37:08;102230.06;;;-4.25;99.86
77110;BME280;66062;52.464;16.922;2023-02-28T05:39:36;102243.09;;;-4.30;100.00
77110;BME280;66062;52.464;16.922;2023-02-28T05:42:01;102240.47;;;-4.24;100.00
77110;BME280;66062;52.464;16.922;2023-02-28T05:44:27;102247.44;;;-4.23;100.00
77110;BME280;66062;52.464;16.922;2023-02-28T05:46:52;102244.81;;;-4.24;100.00
77110;BME280;66062;52.464;16.922;2023-02-28T05:49:18;102243.13;;;-4.28;100.00
77110;BME280;66062;52.464;16.922;2023-02-28T05:51:43;102243.09;;;-4.30;99.79
77110;BME280;66062;52.464;16.922;2023-02-28T05:54:08;102253.53;;;-4.28;99.84
77110;BME280;66062;52.464;16.922;2023-02-28T05:56:34;102244.81;;;-4.17;99.63
77110;BME280;66062;52.464;16.922;2023-02-28T05:59:00;102246.53;;;-4.17;99.74
77110;BME280;66062;52.464;16.922;2023-02-28T06:01:40;102246.53;;;-4.13;99.74
77110;BME280;66062;52.464;16.922;2023-02-28T06:04:08;102256.06;;;-4.15;99.41
77110;BME280;66062;52.464;16.922;2023-02-28T06:06:35;102251.72;;;-4.13;100.00
77110;BME280;66062;52.464;16.922;2023-02-28T06:09:03;102253.38;;;-3.94;99.53
77110;BME280;66062;52.464;16.922;2023-02-28T06:11:29;102253.38;;;-3.92;99.03
77110;BME280;66062;52.464;16.922;2023-02-28T06:13:55;102259.41;;;-3.89;99.02
77110;BME280;66062;52.464;16.922;2023-02-28T06:16:22;102258.50;;;-3.80;98.27
77110;BME280;66062;52.464;16.922;2023-02-28T06:18:47;102258.50;;;-3.78;98.18
77110;BME280;66062;52.464;16.922;2023-02-28T06:21:14;102264.53;;;-3.69;98.33
77110;BME280;66062;52.464;16.922;2023-02-28T06:23:39;102258.41;;;-3.62;97.74
77110;BME280;66062;52.464;16.922;2023-02-28T06:26:05;102259.97;;;-3.36;96.10
77110;BME280;66062;52.464;16.922;2023-02-28T06:28:31;102264.19;;;-3.20;94.24
77110;BME280;66062;52.464;16.922;2023-02-28T06:30:57;102262.25;;;-2.97;93.46
77110;BME280;66062;52.464;16.922;2023-02-28T06:33:23;102265.41;;;-2.65;90.42
77110;BME280;66062;52.464;16.922;2023-02-28T06:35:52;102265.72;;;-2.98;90.35
77110;BME280;66062;52.464;16.922;2023-02-28T06:38:18;102266.78;;;-3.19;91.24
77110;BME280;66062;52.464;16.922;2023-02-28T06:40:44;102269.56;;;-3.43;92.61
77110;BME280;66062;52.464;16.922;2023-02-28T06:43:10;102266.69;;;-3.08;92.40
77110;BME280;66062;52.464;16.922;2023-02-28T06:45:43;102263.84;;;-2.84;90.47
77110;BME280;66062;52.464;16.922;2023-02-28T06:48:09;102263.78;;;-2.79;89.85
77110;BME280;66062;52.464;16.922;2023-02-28T06:50:36;102278.81;;;-3.01;91.65
77110;BME280;66062;52.464;16.922;2023-02-28T06:53:02;102263.16;;;-3.01;91.67
77110;BME280;66062;52.464;16.922;2023-02-28T06:55:27;102265.06;;;-3.21;91.91
77110;BME280;66062;52.464;16.922;2023-02-28T06:57:52;102268.34;;;-2.99;91.98
77110;BME280;66062;52.464;16.922;2023-02-28T07:00:20;102270.69;;;-2.72;90.80
77110;BME280;66062;52.464;16.922;2023-02-28T07:02:46;102270.53;;;-2.54;90.11
77110;BME280;66062;52.464;16.922;2023-02-28T07:05:12;102268.56;;;-2.34;88.96
77110;BME280;66062;52.464;16.922;2023-02-28T07:07:37;102261.50;;;-2.27;87.54
77110;BME280;66062;52.464;16.922;2023-02-28T07:10:06;102269.25;;;-2.20;87.90
77110;BME280;66062;52.464;16.922;2023-02-28T07:12:31;102256.94;;;-2.13;86.70
77110;BME280;66062;52.464;16.922;2023-02-28T07:14:57;102265.66;;;-2.11;87.05
77110;BME280;66062;52.464;16.922;2023-02-28T07:17:22;102276.81;;;-1.97;86.58
77110;BME280;66062;52.464;16.922;2023-02-28T07:19:48;102271.22;;;-1.71;85.73
77110;BME280;66062;52.464;16.922;2023-02-28T07:22:13;102268.41;;;-1.57;85.35
77110;BME280;66062;52.464;16.922;2023-02-28T07:24:38;102262.97;;;-1.44;85.20
77110;BME280;66062;52.464;16.922;2023-02-28T07:27:04;102266.47;;;-1.43;84.09
77110;BME280;66062;52.464;16.922;2023-02-28T07:29:29;102267.75;;;-1.15;83.76
77110;BME280;66062;52.464;16.922;2023-02-28T07:31:55;102262.06;;;-0.89;82.37
77110;BME280;66062;52.464;16.922;2023-02-28T07:34:21;102263.16;;;-0.10;79.67
77110;BME280;66062;52.464;16.922;2023-02-28T07:36:47;102269.94;;;1.46;74.02
77110;BME280;66062;52.464;16.922;2023-02-28T07:39:12;102254.19;;;3.89;64.23
77110;BME280;66062;52.464;16.922;2023-02-28T07:41:38;102251.00;;;6.30;55.48
77110;BME280;66062;52.464;16.922;2023-02-28T07:44:09;102247.53;;;8.34;49.22
77110;BME280;66062;52.464;16.922;2023-02-28T07:46:35;102247.06;;;6.57;51.50
77110;BME280;66062;52.464;16.922;2023-02-28T07:49:01;102245.72;;;9.56;44.88
77110;BME280;66062;52.464;16.922;2023-02-28T07:51:28;102245.59;;;10.83;40.17
77110;BME280;66062;52.464;16.922;2023-02-28T07:53:54;102238.47;;;12.12;38.86
77110;BME280;66062;52.464;16.922;2023-02-28T07:56:19;102241.72;;;13.36;35.42
77110;BME280;66062;52.464;16.922;2023-02-28T07:58:45;102247.47;;;12.11;37.43
77110;BME280;66062;52.464;16.922;2023-02-28T08:01:11;102259.47;;;9.92;42.06
77110;BME280;66062;52.464;16.922;2023-02-28T08:03:38;102251.69;;;11.77;38.82
77110;BME280;66062;52.464;16.922;2023-02-28T08:06:04;102255.38;;;10.97;38.91
77110;BME280;66062;52.464;16.922;2023-02-28T08:08:30;102252.00;;;12.94;36.08
77110;BME280;66062;52.464;16.922;2023-02-28T08:11:00;102246.16;;;13.13;35.85
77110;BME280;66062;52.464;16.922;2023-02-28T08:13:27;102240.91;;;13.11;35.38
77110;BME280;66062;52.464;16.922;2023-02-28T08:15:53;102249.16;;;9.72;38.75
77110;BME280;66062;52.464;16.922;2023-02-28T08:18:20;102239.00;;;13.70;33.46
77110;BME280;66062;52.464;16.922;2023-02-28T08:20:46;102242.06;;;10.56;40.95
77110;BME280;66062;52.464;16.922;2023-02-28T08:23:11;102248.72;;;9.35;41.22
77110;BME280;66062;52.464;16.922;2023-02-28T08:25:36;102233.72;;;14.25;33.20
77110;BME280;66062;52.464;16.922;2023-02-28T08:28:02;102244.03;;;12.81;33.50
77110;BME280;66062;52.464;16.922;2023-02-28T08:30:27;102244.56;;;10.98;38.86
77110;BME280;66062;52.464;16.922;2023-02-28T08:32:52;102263.22;;;6.34;47.97
77110;BME280;66062;52.464;16.922;2023-02-28T08:35:18;102249.91;;;7.57;47.19
77110;BME280;66062;52.464;16.922;2023-02-28T08:37:43;102254.81;;;5.87;49.97
77110;BME280;66062;52.464;16.922;2023-02-28T08:40:09;102251.16;;;6.64;49.99
77110;BME280;66062;52.464;16.922;2023-02-28T08:42:35;102244.25;;;7.13;46.83
77110;BME280;66062;52.464;16.922;2023-02-28T08:45:01;102240.50;;;8.33;46.10
77110;BME280;66062;52.464;16.922;2023-02-28T08:47:26;102240.03;;;10.18;42.19
77110;BME280;66062;52.464;16.922;2023-02-28T08:49:52;102248.13;;;9.16;41.73
77110;BME280;66062;52.464;16.922;2023-02-28T08:52:17;102248.78;;;9.64;41.67
77110;BME280;66062;52.464;16.922;2023-02-28T08:54:42;102247.44;;;11.22;40.11
77110;BME280;66062;52.464;16.922;2023-02-28T08:57:08;102239.69;;;12.92;35.30
77110;BME280;66062;52.464;16.922;2023-02-28T08:59:33;102241.81;;;12.03;37.37
77110;BME280;66062;52.464;16.922;2023-02-28T09:01:58;102248.63;;;9.23;40.94
77110;BME280;66062;52.464;16.922;2023-02-28T09:04:24;102246.50;;;10.69;39.90
77110;BME280;66062;52.464;16.922;2023-02-28T09:06:50;102251.84;;;8.68;43.91
77110;BME280;66062;52.464;16.922;2023-02-28T09:09:15;102236.03;;;12.09;38.33
77110;BME280;66062;52.464;16.922;2023-02-28T09:11:40;102235.47;;;13.24;35.70
77110;BME280;66062;52.464;16.922;2023-02-28T09:14:06;102229.34;;;14.46;31.65
77110;BME280;66062;52.464;16.922;2023-02-28T09:16:32;102237.47;;;11.24;37.66
77110;BME280;66062;52.464;16.922;2023-02-28T09:18:58;102231.13;;;13.56;34.16
77110;BME280;66062;52.464;16.922;2023-02-28T09:21:23;102233.66;;;9.20;39.49
77110;BME280;66062;52.464;16.922;2023-02-28T09:23:50;102239.28;;;10.16;40.34
77110;BME280;66062;52.464;16.922;2023-02-28T09:26:24;102236.31;;;12.17;36.73
77110;BME280;66062;52.464;16.922;2023-02-28T09:28:50;102233.31;;;13.05;34.13
77110;BME280;66062;52.464;16.922;2023-02-28T09:31:19;102238.78;;;11.69;33.52
77110;BME280;66062;52.464;16.922;2023-02-28T09:33:49;102232.97;;;13.67;32.86
77110;BME280;66062;52.464;16.922;2023-02-28T09:36:15;102236.66;;;11.49;35.63
77110;BME280;66062;52.464;16.922;2023-02-28T09:38:40;102241.56;;;10.22;39.50
77110;BME280;66062;52.464;16.922;2023-02-28T09:41:23;102247.63;;;10.39;37.34
77110;BME280;66062;52.464;16.922;2023-02-28T09:43:56;102237.22;;;12.41;35.61
77110;BME280;66062;52.464;16.922;2023-02-28T09:46:33;102240.34;;;13.76;33.73
77110;BME280;66062;52.464;16.922;2023-02-28T09:49:05;102234.69;;;15.41;31.03
77110;BME280;66062;52.464;16.922;2023-02-28T09:51:47;102239.97;;;16.84;28.22
77110;BME280;66062;52.464;16.922;2023-02-28T09:54:22;102237.84;;;15.88;29.24
77110;BME280;66062;52.464;16.922;2023-02-28T09:57:13;102246.38;;;16.33;29.63
77110;BME280;66062;52.464;16.922;2023-02-28T10:00:03;102252.88;;;12.95;32.50
77110;BME280;66062;52.464;16.922;2023-02-28T10:05:23;102256.31;;;14.00;30.24
77110;BME280;66062;52.464;16.922;2023-02-28T10:08:08;102260.84;;;12.23;32.60
77110;BME280;66062;52.464;16.922;2023-02-28T10:10:46;102242.75;;;16.13;26.58
77110;BME280;66062;52.464;16.922;2023-02-28T10:13:17;102246.66;;;15.49;28.60
77110;BME280;66062;52.464;16.922;2023-02-28T10:15:47;102250.41;;;12.44;32.84
77110;BME280;66062;52.464;16.922;2023-02-28T10:18:21;102244.16;;;11.56;36.20
77110;BME280;66062;52.464;16.922;2023-02-28T10:20:50;102247.34;;;15.30;30.07
77110;BME280;66062;52.464;16.922;2023-02-28T10:23:20;102243.16;;;14.73;29.80
77110;BME280;66062;52.464;16.922;2023-02-28T10:25:54;102237.41;;;13.22;34.02
77110;BME280;66062;52.464;16.922;2023-02-28T10:28:20;102237.00;;;12.92;35.21
77110;BME280;66062;52.464;16.922;2023-02-28T10:30:51;102238.31;;;12.38;36.67
77110;BME280;66062;52.464;16.922;2023-02-28T10:33:23;102242.78;;;11.89;35.47
77110;BME280;66062;52.464;16.922;2023-02-28T10:35:50;102250.50;;;10.21;38.97
77110;BME280;66062;52.464;16.922;2023-02-28T10:38:20;102242.97;;;10.14;39.34
77110;BME280;66062;52.464;16.922;2023-02-28T10:40:46;102226.75;;;11.76;35.64
77110;BME280;66062;52.464;16.922;2023-02-28T10:56:03;102232.84;;;9.04;40.31
77110;BME280;66062;52.464;16.922;2023-02-28T11:01:02;102229.28;;;8.89;41.36
77110;BME280;66062;52.464;16.922;2023-02-28T11:03:34;102211.31;;;12.89;34.44
77110;BME280;66062;52.464;16.922;2023-02-28T11:06:25;102207.69;;;14.59;30.97
77110;BME280;66062;52.464;16.922;2023-02-28T11:08:53;102201.38;;;14.80;28.55
77110;BME280;66062;52.464;16.922;2023-02-28T11:11:20;102200.34;;;12.92;31.60
77110;BME280;66062;52.464;16.922;2023-02-28T11:13:47;102205.25;;;13.33;32.53
77110;BME280;66062;52.464;16.922;2023-02-28T11:16:15;102193.94;;;14.41;29.93
77110;BME280;66062;52.464;16.922;2023-02-28T11:21:21;102203.44;;;12.27;33.28
77110;BME280;66062;52.464;16.922;2023-02-28T11:23:49;102205.00;;;12.30;34.12
77110;BME280;66062;52.464;16.922;2023-02-28T11:26:16;102202.13;;;12.80;33.47
77110;BME280;66062;52.464;16.922;2023-02-28T11:29:11;102196.19;;;13.91;32.13
77110;BME280;66062;52.464;16.922;2023-02-28T11:31:37;102194.06;;;13.61;30.48
77110;BME280;66062;52.464;16.922;2023-02-28T11:34:23;102202.19;;;10.40;37.38
77110;BME280;66062;52.464;16.922;2023-02-28T11:36:48;102198.50;;;10.00;39.18
77110;BME280;66062;52.464;16.922;2023-02-28T11:39:15;102207.00;;;6.98;44.32
77110;BME280;66062;52.464;16.922;2023-02-28T11:42:29;102195.47;;;7.16;44.81
77110;BME280;66062;52.464;16.922;2023-02-28T11:45:35;102202.63;;;6.79;47.12
77110;BME280;66062;52.464;16.922;2023-02-28T11:48:29;102208.22;;;7.42;44.62
77110;BME280;66062;52.464;16.922;2023-02-28T11:51:18;102193.28;;;8.05;43.27
77110;BME280;66062;52.464;16.922;2023-02-28T11:53:58;102185.06;;;11.09;37.69
77110;BME280;66062;52.464;16.922;2023-02-28T11:56:41;102178.47;;;11.40;37.08
77110;BME280;66062;52.464;16.922;2023-02-28T11:59:34;102163.59;;;11.10;38.12
77110;BME280;66062;52.464;16.922;2023-02-28T12:08:07;102157.31;;;14.18;30.05
77110;BME280;66062;52.464;16.922;2023-02-28T12:10:54;102169.38;;;9.69;38.44
77110;BME280;66062;52.464;16.922;2023-02-28T12:16:27;102173.84;;;9.40;40.94
77110;BME280;66062;52.464;16.922;2023-02-28T12:22:27;102171.41;;;8.93;39.60
77110;BME280;66062;52.464;16.922;2023-02-28T12:27:38;102157.09;;;11.27;34.21
77110;BME280;66062;52.464;16.922;2023-02-28T12:30:26;102149.28;;;11.11;34.43
77110;BME280;66062;52.464;16.922;2023-02-28T12:32:58;102149.59;;;12.43;31.67
77110;BME280;66062;52.464;16.922;2023-02-28T12:35:34;102137.28;;;11.55;34.09
77110;BME280;66062;52.464;16.922;2023-02-28T12:40:56;102126.25;;;14.99;27.09
77110;BME280;66062;52.464;16.922;2023-02-28T12:43:26;102133.78;;;15.26;26.47
77110;BME280;66062;52.464;16.922;2023-02-28T12:46:55;102128.88;;;14.37;28.54
77110;BME280;66062;52.464;16.922;2023-02-28T12:49:07;102135.94;;;12.59;32.47
77110;BME280;66062;52.464;16.922;2023-02-28T12:51:34;102128.09;;;11.59;33.37
77110;BME280;66062;52.464;16.922;2023-02-28T12:54:16;102125.50;;;13.13;30.21
77110;BME280;66062;52.464;16.922;2023-02-28T12:57:16;102128.22;;;11.20;32.70
77110;BME280;66062;52.464;16.922;2023-02-28T12:59:57;102129.94;;;11.21;34.18
77110;BME280;66062;52.464;16.922;2023-02-28T13:08:52;102122.25;;;13.32;30.13
77110;BME280;66062;52.464;16.922;2023-02-28T13:11:59;102112.22;;;14.00;28.93
77110;BME280;66062;52.464;16.922;2023-02-28T13:14:36;102113.91;;;14.55;27.66
77110;BME280;66062;52.464;16.922;2023-02-28T13:19:56;102110.56;;;13.55;29.56
77110;BME280;66062;52.464;16.922;2023-02-28T13:24:55;102118.25;;;13.59;29.26
77110;BME280;66062;52.464;16.922;2023-02-28T13:29:50;102111.66;;;11.02;34.01
77110;BME280;66062;52.464;16.922;2023-02-28T13:39:47;102094.88;;;12.23;30.96
77110;BME280;66062;52.464;16.922;2023-02-28T13:47:31;102077.06;;;14.46;27.43
77110;BME280;66062;52.464;16.922;2023-02-28T13:50:21;102085.50;;;11.81;31.89
77110;BME280;66062;52.464;16.922;2023-02-28T13:56:02;102089.28;;;9.70;35.33
77110;BME280;66062;52.464;16.922;2023-02-28T13:59:18;102083.81;;;9.17;35.64
77110;BME280;66062;52.464;16.922;2023-02-28T14:07:07;102074.59;;;13.35;29.69
77110;BME280;66062;52.464;16.922;2023-02-28T14:09:46;102069.63;;;11.29;31.35
77110;BME280;66062;52.464;16.922;2023-02-28T14:12:53;102063.63;;;10.50;33.58
77110;BME280;66062;52.464;16.922;2023-02-28T14:20:54;102069.56;;;8.59;37.63
77110;BME280;66062;52.464;16.922;2023-02-28T14:23:34;102067.50;;;10.71;34.19
77110;BME280;66062;52.464;16.922;2023-02-28T14:26:07;102057.00;;;9.20;36.07
77110;BME280;66062;52.464;16.922;2023-02-28T14:31:33;102063.44;;;7.02;41.84
77110;BME280;66062;52.464;16.922;2023-02-28T14:37:03;102060.75;;;8.13;40.28
77110;BME280;66062;52.464;16.922;2023-02-28T14:39:30;102057.34;;;7.33;42.86
77110;BME280;66062;52.464;16.922;2023-02-28T14:41:57;102063.09;;;6.24;45.62
77110;BME280;66062;52.464;16.922;2023-02-28T14:44:30;102064.78;;;4.95;48.22
77110;BME280;66062;52.464;16.922;2023-02-28T14:46:58;102070.47;;;4.86;50.56
77110;BME280;66062;52.464;16.922;2023-02-28T14:52:15;102069.41;;;5.29;48.86
77110;BME280;66062;52.464;16.922;2023-02-28T14:54:43;102071.97;;;5.31;49.41